This is the latest recevied weather packets stored in our database for station/object K7CTM. If no packets are shown the sender has not sent any weather packets the latest 10 day(s).
| Time | Temp. | Humidity | Pressure | Rain* | Wind** | Luminosity | Snow |
|---|---|---|---|---|---|---|---|
| 1777494070 | 6.67° C | 69% | 1032.1 hPa | 0 mm | - | 280 W/m² | - |
| 1777493768 | 6.67° C | 71% | 1032.2 hPa | 0 mm | - | 217 W/m² | - |
| 1777493466 | 6.11° C | 68% | 1032.2 hPa | 0 mm | - | 134 W/m² | - |
| 1777493161 | 6.11° C | 71% | 1032.2 hPa | 0 mm | - | 130 W/m² | - |
| 1777492858 | 6.67° C | 71% | 1032.3 hPa | 0 mm | - | 122 W/m² | - |
| 1777492555 | 7.22° C | 69% | 1032.4 hPa | 0 mm | - | 210 W/m² | - |
| 1777492251 | 7.78° C | 69% | 1032.4 hPa | 0 mm | - | 385 W/m² | - |
| 1777491949 | 7.78° C | 72% | 1032.2 hPa | 0 mm | - | 358 W/m² | - |
| 1777491644 | 6.67° C | 68% | 1031.6 hPa | 0 mm | - | 256 W/m² | - |
| 1777491342 | 6.67° C | 70% | 1031.3 hPa | 0 mm | - | 184 W/m² | - |
| 1777491039 | 6.67° C | 72% | 1031.4 hPa | 0 mm | - | 227 W/m² | - |
| 1777490734 | 6.11° C | 73% | 1031.5 hPa | 0 mm | - | 184 W/m² | - |
| 1777490432 | 6.11° C | 77% | 1031.7 hPa | 0 mm | - | 97 W/m² | - |
| 1777490128 | 6.11° C | 73% | 1031.9 hPa | 0 mm | - | 75 W/m² | - |
| 1777489825 | 6.11° C | 74% | 1032.1 hPa | 0 mm | - | 85 W/m² | - |
| 1777489522 | 6.67° C | 66% | 1032.1 hPa | 0 mm | - | 68 W/m² | - |
| 1777489219 | 6.11° C | 72% | 1032.1 hPa | 0 mm | - | 40 W/m² | - |
| 1777488916 | 7.22° C | 66% | 1031.9 hPa | 0 mm | - | 52 W/m² | - |
| 1777488613 | 8.33° C | 59% | 1031.4 hPa | 0 mm | - | 79 W/m² | - |
| 1777488311 | 8.89° C | 57% | 1031.5 hPa | 0 mm | - | 99 W/m² | - |
| 1777488009 | 8.89° C | 55% | 1031.2 hPa | 0 mm | - | 164 W/m² | - |
| 1777487707 | 8.89° C | 54% | 1031.2 hPa | 0 mm | - | 164 W/m² | - |
| 1777487404 | 8.89° C | 54% | 1031.1 hPa | 0 mm | - | 126 W/m² | - |
| 1777487101 | 8.89° C | 53% | 1031.2 hPa | 0 mm | - | 151 W/m² | - |
| 1777486796 | 8.89° C | 52% | 1030.8 hPa | 0 mm | - | 251 W/m² | - |
* Rain latest hour (hover to see other rain measurements)
** Current wind speed in m/s (hover to see current wind gust speed)